createdAt,value
2018-07-09T00:02:07.569Z,98885.27
2018-07-09T00:04:36.805Z,98884.77
2018-07-09T00:07:06.177Z,98885.08
2018-07-09T00:09:35.721Z,98880.22
2018-07-09T00:12:04.900Z,98891.88
2018-07-09T00:14:34.146Z,98887.05
2018-07-09T00:17:03.437Z,98887.90
2018-07-09T00:19:33.034Z,98893.62
2018-07-09T00:22:02.270Z,98883.39
2018-07-09T00:24:31.518Z,98885.89
2018-07-09T00:27:00.691Z,98888.06
2018-07-09T00:29:29.891Z,98880.92
2018-07-09T00:31:59.171Z,98888.44
2018-07-09T00:34:28.433Z,98891.95
2018-07-09T00:36:57.656Z,98887.94
2018-07-09T00:39:26.911Z,98884.23
2018-07-09T00:41:56.241Z,98881.27
2018-07-09T00:44:26.230Z,98884.55
2018-07-09T00:46:55.489Z,98878.88
2018-07-09T00:49:24.814Z,98872.16
2018-07-09T00:51:54.329Z,98877.33
2018-07-09T00:54:23.976Z,98877.56
2018-07-09T00:56:53.766Z,98876.25
2018-07-09T00:59:23.080Z,98880.87
2018-07-09T01:01:52.563Z,98878.00
2018-07-09T01:04:22.853Z,98872.37
2018-07-09T01:06:52.164Z,98870.21
2018-07-09T01:09:21.514Z,98868.66
2018-07-09T01:12:25.996Z,98874.63
2018-07-09T01:14:55.225Z,98867.41
2018-07-09T01:17:24.493Z,98869.37
2018-07-09T01:19:53.847Z,98872.40
2018-07-09T01:22:23.251Z,98871.92
2018-07-09T01:24:52.510Z,98870.30
2018-07-09T01:27:21.909Z,98877.62
2018-07-09T01:29:51.241Z,98874.98
2018-07-09T01:32:20.429Z,98867.45
2018-07-09T01:34:49.760Z,98870.72
2018-07-09T01:37:19.056Z,98871.56
2018-07-09T01:39:48.376Z,98868.59
2018-07-09T01:42:18.021Z,98864.03
2018-07-09T01:44:47.271Z,98867.25
2018-07-09T01:47:16.982Z,98862.69
2018-07-09T01:49:46.188Z,98864.03
2018-07-09T01:52:15.482Z,98862.45
2018-07-09T01:54:44.635Z,98861.88
2018-07-09T01:57:13.849Z,98861.88
2018-07-09T01:59:43.082Z,98855.14
2018-07-09T02:02:12.381Z,98855.70
2018-07-09T02:04:41.692Z,98856.28
2018-07-09T02:07:11.336Z,98850.10
2018-07-09T02:09:40.601Z,98846.62
2018-07-09T02:12:09.773Z,98849.05
2018-07-09T02:14:38.978Z,98845.58
2018-07-09T02:17:08.522Z,98849.91
2018-07-09T02:19:38.705Z,98845.36
2018-07-09T02:22:07.925Z,98844.28
2018-07-09T02:24:37.502Z,98848.89
2018-07-09T02:27:07.798Z,98844.61
2018-07-09T02:29:37.025Z,98844.61
2018-07-09T02:32:06.392Z,98845.92
2018-07-09T02:34:35.686Z,98841.66
2018-07-09T02:37:05.001Z,98850.56
2018-07-09T02:39:34.263Z,98845.77
2018-07-09T02:42:03.507Z,98854.66
2018-07-09T02:44:33.546Z,98846.64
2018-07-09T02:47:02.778Z,98853.11
2018-07-09T02:49:32.035Z,98845.30
2018-07-09T02:52:01.349Z,98843.14
2018-07-09T02:54:30.629Z,98847.69
2018-07-09T02:56:59.835Z,98849.36
2018-07-09T02:59:29.026Z,98846.72
2018-07-09T03:01:58.520Z,98849.98
2018-07-09T03:04:27.761Z,98850.53
2018-07-09T03:06:57.134Z,98851.61
2018-07-09T03:09:26.386Z,98850.58
2018-07-09T03:11:55.568Z,98851.39
2018-07-09T03:14:24.770Z,98854.35
2018-07-09T03:16:54.007Z,98852.98
2018-07-09T03:19:23.294Z,98848.41
2018-07-09T03:21:52.500Z,98845.17
2018-07-09T03:24:21.685Z,98850.81
2018-07-09T03:26:50.895Z,98853.50
2018-07-09T03:29:20.133Z,98861.83
2018-07-09T03:31:49.356Z,98858.58
2018-07-09T03:34:18.678Z,98865.56
2018-07-09T03:36:47.984Z,98859.07
2018-07-09T03:39:17.174Z,98863.60
2018-07-09T03:41:46.403Z,98862.52
2018-07-09T03:44:17.425Z,98864.09
2018-07-09T03:46:46.616Z,98868.67
2018-07-09T03:49:15.905Z,98871.88
2018-07-09T03:51:45.143Z,98860.59
2018-07-09T03:54:14.387Z,98874.83
2018-07-09T03:56:43.620Z,98866.44
2018-07-09T03:59:12.847Z,98872.88
2018-07-09T04:01:42.034Z,98874.00
2018-07-09T04:04:11.290Z,98872.11
2018-07-09T04:06:40.520Z,98869.62
2018-07-09T04:09:09.764Z,98869.33
2018-07-09T04:11:39.077Z,98873.37
2018-07-09T04:14:08.450Z,98873.89
2018-07-09T04:16:37.662Z,98878.20
2018-07-09T04:19:07.094Z,98885.22
2018-07-09T04:21:36.305Z,98872.27
2018-07-09T04:24:05.530Z,98878.15
2018-07-09T04:26:34.823Z,98886.19
2018-07-09T04:29:04.054Z,98880.22
2018-07-09T04:31:33.358Z,98879.66
2018-07-09T04:34:02.583Z,98880.67
2018-07-09T04:36:31.809Z,98879.23
2018-07-09T04:39:10.949Z,98872.73
2018-07-09T04:41:40.598Z,98875.88
2018-07-09T04:44:09.814Z,98876.62
2018-07-09T04:46:39.036Z,98868.73
2018-07-09T04:49:10.169Z,98875.17
2018-07-09T04:51:39.462Z,98879.97
2018-07-09T04:54:08.750Z,98884.22
2018-07-09T04:56:38.007Z,98878.75
2018-07-09T04:59:07.373Z,98894.88
2018-07-09T05:01:36.639Z,98890.25
2018-07-09T05:04:05.907Z,98883.42
2018-07-09T05:06:35.118Z,98895.50
2018-07-09T05:09:05.258Z,98895.97
2018-07-09T05:11:34.519Z,98889.95
2018-07-09T05:14:03.821Z,98887.71
2018-07-09T05:16:33.154Z,98887.36
2018-07-09T05:19:02.476Z,98885.63
2018-07-09T05:21:31.865Z,98885.81
2018-07-09T05:24:01.051Z,98886.53
2018-07-09T05:26:30.373Z,98886.41
2018-07-09T05:28:59.561Z,98888.21
2018-07-09T05:31:28.870Z,98884.80
2018-07-09T05:33:58.048Z,98881.45
2018-07-09T05:36:29.189Z,98879.69
2018-07-09T05:38:58.665Z,98879.05
2018-07-09T05:41:27.987Z,98882.63
2018-07-09T05:43:57.666Z,98882.13
2018-07-09T05:46:27.843Z,98885.77
2018-07-09T05:48:58.161Z,98883.72
2018-07-09T05:51:27.434Z,98879.53
2018-07-09T05:53:56.632Z,98881.55
2018-07-09T05:56:25.904Z,98877.06
2018-07-09T05:58:55.519Z,98879.44
2018-07-09T06:01:25.144Z,98875.27
2018-07-09T06:03:54.455Z,98882.03
2018-07-09T06:06:23.744Z,98878.13
2018-07-09T06:08:53.080Z,98881.59
2018-07-09T06:11:22.509Z,98884.73
2018-07-09T06:13:52.067Z,98881.48
2018-07-09T06:16:21.516Z,98887.16
2018-07-09T06:18:50.976Z,98883.09
2018-07-09T06:21:20.270Z,98889.89
2018-07-09T06:23:49.500Z,98888.52
2018-07-09T06:26:18.865Z,98887.57
2018-07-09T06:28:48.413Z,98894.55
2018-07-09T06:31:18.510Z,98890.11
2018-07-09T06:33:47.973Z,98893.72
2018-07-09T06:36:17.206Z,98897.50
2018-07-09T06:38:46.581Z,98890.26
2018-07-09T06:41:15.916Z,98897.78
2018-07-09T06:43:45.815Z,98890.40
2018-07-09T06:46:15.172Z,98894.05
2018-07-09T06:48:44.518Z,98896.02
2018-07-09T06:51:13.831Z,98893.39
2018-07-09T06:53:43.112Z,98897.20
2018-07-09T06:56:12.474Z,98899.06
2018-07-09T06:58:41.701Z,98896.64
2018-07-09T07:01:10.907Z,98895.21
2018-07-09T07:03:41.847Z,98894.53
2018-07-09T07:06:16.389Z,98884.02
2018-07-09T07:08:45.750Z,98882.56
2018-07-09T07:11:14.984Z,98883.16
2018-07-09T07:13:44.335Z,98876.86
2018-07-09T07:16:13.697Z,98880.08
2018-07-09T07:18:42.967Z,98880.00
2018-07-09T07:21:12.340Z,98876.26
2018-07-09T07:23:41.706Z,98878.97
2018-07-09T07:26:10.977Z,98880.34
2018-07-09T07:28:40.256Z,98873.18
2018-07-09T07:31:09.998Z,98875.61
2018-07-09T07:33:39.356Z,98882.95
2018-07-09T07:36:08.683Z,98876.22
2018-07-09T07:38:37.984Z,98880.09
2018-07-09T07:41:07.375Z,98875.66
2018-07-09T07:43:36.530Z,98869.22
2018-07-09T07:46:05.815Z,98870.28
2018-07-09T07:48:35.018Z,98870.02
2018-07-09T07:51:04.224Z,98863.28
2018-07-09T07:53:33.787Z,98874.00
2018-07-09T07:56:03.021Z,98870.38
2018-07-09T07:58:32.220Z,98869.23
2018-07-09T08:01:01.449Z,98868.32
2018-07-09T08:03:31.650Z,98872.00
2018-07-09T08:06:00.903Z,98862.60
2018-07-09T08:08:30.243Z,98863.16
2018-07-09T08:11:10.909Z,98856.62
2018-07-09T08:13:29.348Z,98859.88
2018-07-09T08:15:58.026Z,98861.91
2018-07-09T08:18:27.314Z,98856.69
2018-07-09T08:20:56.537Z,98859.80
2018-07-09T08:23:26.776Z,98855.17
2018-07-09T08:25:56.672Z,98853.05
2018-07-09T08:28:26.234Z,98852.27
2018-07-09T08:30:56.152Z,98848.03
2018-07-09T08:33:25.320Z,98827.98
2018-07-09T08:35:54.789Z,98847.59
2018-07-09T08:38:24.390Z,98843.63
2018-07-09T08:40:53.649Z,98838.19
2018-07-09T08:43:23.179Z,98838.97
2018-07-09T08:45:52.441Z,98831.97
2018-07-09T08:48:21.776Z,98837.91
2018-07-09T08:50:51.037Z,98834.84
2018-07-09T08:53:20.714Z,98837.17
2018-07-09T08:55:50.307Z,98837.22
2018-07-09T08:58:19.754Z,98845.78
2018-07-09T09:00:49.035Z,98845.26
2018-07-09T09:03:18.244Z,98840.98
2018-07-09T09:05:47.559Z,98842.16
2018-07-09T09:08:16.894Z,98836.37
2018-07-09T09:10:46.563Z,98835.72
2018-07-09T09:13:15.832Z,98839.56
2018-07-09T09:15:45.166Z,98841.60
